sensor_id;sensor_type;location;lat;lon;timestamp;P1;durP1;ratioP1;P2;durP2;ratioP2
17052;SDS011;8643;48.824;11.422;2023-05-14T00:00:16;13.97;;;9.93;;
17052;SDS011;8643;48.824;11.422;2023-05-14T00:02:45;15.20;;;9.67;;
17052;SDS011;8643;48.824;11.422;2023-05-14T00:05:14;15.20;;;9.73;;
17052;SDS011;8643;48.824;11.422;2023-05-14T00:07:43;15.97;;;9.67;;
17052;SDS011;8643;48.824;11.422;2023-05-14T00:10:11;16.63;;;10.30;;
17052;SDS011;8643;48.824;11.422;2023-05-14T00:12:41;13.47;;;9.33;;
17052;SDS011;8643;48.824;11.422;2023-05-14T00:15:10;14.53;;;10.10;;
17052;SDS011;8643;48.824;11.422;2023-05-14T00:17:39;15.27;;;9.53;;
17052;SDS011;8643;48.824;11.422;2023-05-14T00:20:08;13.83;;;9.27;;
17052;SDS011;8643;48.824;11.422;2023-05-14T00:22:38;15.37;;;10.13;;
17052;SDS011;8643;48.824;11.422;2023-05-14T00:25:07;14.73;;;9.90;;
17052;SDS011;8643;48.824;11.422;2023-05-14T00:27:36;15.17;;;10.10;;
17052;SDS011;8643;48.824;11.422;2023-05-14T00:30:07;14.07;;;9.87;;
17052;SDS011;8643;48.824;11.422;2023-05-14T00:32:36;13.37;;;9.80;;
17052;SDS011;8643;48.824;11.422;2023-05-14T00:35:05;14.43;;;9.87;;
17052;SDS011;8643;48.824;11.422;2023-05-14T00:37:34;15.37;;;10.13;;
17052;SDS011;8643;48.824;11.422;2023-05-14T00:40:03;13.40;;;9.40;;
17052;SDS011;8643;48.824;11.422;2023-05-14T00:42:34;12.30;;;9.00;;
17052;SDS011;8643;48.824;11.422;2023-05-14T00:45:02;12.55;;;9.27;;
17052;SDS011;8643;48.824;11.422;2023-05-14T00:47:33;11.70;;;8.82;;
17052;SDS011;8643;48.824;11.422;2023-05-14T00:50:02;12.50;;;9.33;;
17052;SDS011;8643;48.824;11.422;2023-05-14T00:52:33;14.45;;;9.15;;
17052;SDS011;8643;48.824;11.422;2023-05-14T00:55:02;12.80;;;8.57;;
17052;SDS011;8643;48.824;11.422;2023-05-14T00:57:33;12.37;;;8.80;;
17052;SDS011;8643;48.824;11.422;2023-05-14T01:00:04;12.77;;;8.93;;
17052;SDS011;8643;48.824;11.422;2023-05-14T01:02:35;11.73;;;8.75;;
17052;SDS011;8643;48.824;11.422;2023-05-14T01:05:04;11.90;;;8.65;;
17052;SDS011;8643;48.824;11.422;2023-05-14T01:07:36;13.00;;;8.32;;
17052;SDS011;8643;48.824;11.422;2023-05-14T01:10:14;10.67;;;8.30;;
17052;SDS011;8643;48.824;11.422;2023-05-14T01:13:01;11.68;;;8.57;;
17052;SDS011;8643;48.824;11.422;2023-05-14T01:15:40;11.82;;;8.23;;
17052;SDS011;8643;48.824;11.422;2023-05-14T01:18:13;11.07;;;8.52;;
17052;SDS011;8643;48.824;11.422;2023-05-14T01:20:45;12.82;;;8.13;;
17052;SDS011;8643;48.824;11.422;2023-05-14T01:23:19;12.95;;;7.65;;
17052;SDS011;8643;48.824;11.422;2023-05-14T01:25:48;9.95;;;7.40;;
17052;SDS011;8643;48.824;11.422;2023-05-14T01:28:17;10.30;;;7.32;;
17052;SDS011;8643;48.824;11.422;2023-05-14T01:30:48;13.27;;;7.50;;
17052;SDS011;8643;48.824;11.422;2023-05-14T01:33:21;9.73;;;7.30;;
17052;SDS011;8643;48.824;11.422;2023-05-14T01:35:56;12.25;;;8.27;;
17052;SDS011;8643;48.824;11.422;2023-05-14T01:38:26;9.25;;;7.55;;
17052;SDS011;8643;48.824;11.422;2023-05-14T01:40:57;10.25;;;7.65;;
17052;SDS011;8643;48.824;11.422;2023-05-14T01:43:27;10.45;;;7.30;;
17052;SDS011;8643;48.824;11.422;2023-05-14T01:45:57;8.77;;;7.32;;
17052;SDS011;8643;48.824;11.422;2023-05-14T01:48:26;11.23;;;7.32;;
17052;SDS011;8643;48.824;11.422;2023-05-14T01:50:55;10.73;;;7.32;;
17052;SDS011;8643;48.824;11.422;2023-05-14T01:53:25;8.98;;;6.70;;
17052;SDS011;8643;48.824;11.422;2023-05-14T01:55:54;11.77;;;7.10;;
17052;SDS011;8643;48.824;11.422;2023-05-14T01:58:22;11.43;;;7.20;;
17052;SDS011;8643;48.824;11.422;2023-05-14T02:00:51;9.43;;;7.20;;
17052;SDS011;8643;48.824;11.422;2023-05-14T02:03:20;8.75;;;6.65;;
17052;SDS011;8643;48.824;11.422;2023-05-14T02:05:49;9.93;;;6.80;;
17052;SDS011;8643;48.824;11.422;2023-05-14T02:08:17;10.85;;;7.75;;
17052;SDS011;8643;48.824;11.422;2023-05-14T02:10:48;11.93;;;7.25;;
17052;SDS011;8643;48.824;11.422;2023-05-14T02:13:16;9.40;;;7.03;;
17052;SDS011;8643;48.824;11.422;2023-05-14T02:15:45;8.95;;;6.93;;
17052;SDS011;8643;48.824;11.422;2023-05-14T02:18:14;10.32;;;7.20;;
17052;SDS011;8643;48.824;11.422;2023-05-14T02:20:49;9.23;;;7.00;;
17052;SDS011;8643;48.824;11.422;2023-05-14T02:23:18;9.05;;;6.88;;
17052;SDS011;8643;48.824;11.422;2023-05-14T02:26:04;9.65;;;7.10;;
17052;SDS011;8643;48.824;11.422;2023-05-14T02:28:35;10.25;;;6.85;;
17052;SDS011;8643;48.824;11.422;2023-05-14T02:31:03;10.20;;;6.47;;
17052;SDS011;8643;48.824;11.422;2023-05-14T02:33:32;9.23;;;6.57;;
17052;SDS011;8643;48.824;11.422;2023-05-14T02:36:01;12.20;;;7.25;;
17052;SDS011;8643;48.824;11.422;2023-05-14T02:38:30;8.75;;;6.97;;
17052;SDS011;8643;48.824;11.422;2023-05-14T02:40:59;9.40;;;6.38;;
17052;SDS011;8643;48.824;11.422;2023-05-14T02:43:31;8.45;;;6.20;;
17052;SDS011;8643;48.824;11.422;2023-05-14T02:46:00;8.95;;;6.60;;
17052;SDS011;8643;48.824;11.422;2023-05-14T02:48:29;11.10;;;7.25;;
17052;SDS011;8643;48.824;11.422;2023-05-14T02:50:57;10.02;;;6.63;;
17052;SDS011;8643;48.824;11.422;2023-05-14T02:53:27;10.95;;;6.72;;
17052;SDS011;8643;48.824;11.422;2023-05-14T02:55:56;9.75;;;6.97;;
17052;SDS011;8643;48.824;11.422;2023-05-14T02:58:25;10.38;;;7.03;;
17052;SDS011;8643;48.824;11.422;2023-05-14T03:00:55;10.20;;;7.13;;
17052;SDS011;8643;48.824;11.422;2023-05-14T03:03:24;8.90;;;6.85;;
17052;SDS011;8643;48.824;11.422;2023-05-14T03:05:53;9.25;;;7.07;;
17052;SDS011;8643;48.824;11.422;2023-05-14T03:08:22;9.93;;;6.90;;
17052;SDS011;8643;48.824;11.422;2023-05-14T03:10:51;11.48;;;7.25;;
17052;SDS011;8643;48.824;11.422;2023-05-14T03:13:20;10.88;;;7.32;;
17052;SDS011;8643;48.824;11.422;2023-05-14T03:15:48;9.30;;;7.03;;
17052;SDS011;8643;48.824;11.422;2023-05-14T03:18:22;10.20;;;7.53;;
17052;SDS011;8643;48.824;11.422;2023-05-14T03:20:50;11.52;;;7.63;;
17052;SDS011;8643;48.824;11.422;2023-05-14T03:23:20;10.52;;;6.80;;
17052;SDS011;8643;48.824;11.422;2023-05-14T03:25:50;9.73;;;7.05;;
17052;SDS011;8643;48.824;11.422;2023-05-14T03:28:19;11.00;;;7.27;;
17052;SDS011;8643;48.824;11.422;2023-05-14T03:30:48;10.32;;;7.35;;
17052;SDS011;8643;48.824;11.422;2023-05-14T03:33:17;10.77;;;7.32;;
17052;SDS011;8643;48.824;11.422;2023-05-14T03:35:48;8.85;;;6.78;;
17052;SDS011;8643;48.824;11.422;2023-05-14T03:38:19;8.40;;;6.85;;
17052;SDS011;8643;48.824;11.422;2023-05-14T03:40:48;9.75;;;7.15;;
17052;SDS011;8643;48.824;11.422;2023-05-14T03:43:16;8.80;;;7.00;;
17052;SDS011;8643;48.824;11.422;2023-05-14T03:45:47;9.05;;;6.40;;
17052;SDS011;8643;48.824;11.422;2023-05-14T03:48:18;10.38;;;6.60;;
17052;SDS011;8643;48.824;11.422;2023-05-14T03:50:48;9.93;;;6.90;;
17052;SDS011;8643;48.824;11.422;2023-05-14T03:53:17;9.10;;;7.30;;
17052;SDS011;8643;48.824;11.422;2023-05-14T03:55:46;10.10;;;6.95;;
17052;SDS011;8643;48.824;11.422;2023-05-14T03:58:15;8.27;;;6.90;;
17052;SDS011;8643;48.824;11.422;2023-05-14T04:00:44;8.68;;;6.40;;
17052;SDS011;8643;48.824;11.422;2023-05-14T04:03:12;10.30;;;6.45;;
17052;SDS011;8643;48.824;11.422;2023-05-14T04:05:41;8.25;;;6.22;;
17052;SDS011;8643;48.824;11.422;2023-05-14T04:08:12;8.15;;;6.30;;
17052;SDS011;8643;48.824;11.422;2023-05-14T04:10:41;9.48;;;6.38;;
17052;SDS011;8643;48.824;11.422;2023-05-14T04:13:10;8.02;;;6.05;;
17052;SDS011;8643;48.824;11.422;2023-05-14T04:15:38;8.20;;;5.95;;
17052;SDS011;8643;48.824;11.422;2023-05-14T04:18:07;8.18;;;6.00;;
17052;SDS011;8643;48.824;11.422;2023-05-14T04:20:36;7.90;;;5.90;;
17052;SDS011;8643;48.824;11.422;2023-05-14T04:23:05;8.52;;;6.20;;
17052;SDS011;8643;48.824;11.422;2023-05-14T04:25:35;9.18;;;6.32;;
17052;SDS011;8643;48.824;11.422;2023-05-14T04:28:04;9.13;;;6.07;;
17052;SDS011;8643;48.824;11.422;2023-05-14T04:30:33;9.35;;;6.47;;
17052;SDS011;8643;48.824;11.422;2023-05-14T04:33:02;9.25;;;6.30;;
17052;SDS011;8643;48.824;11.422;2023-05-14T04:35:31;8.00;;;6.00;;
17052;SDS011;8643;48.824;11.422;2023-05-14T04:38:00;7.35;;;5.55;;
17052;SDS011;8643;48.824;11.422;2023-05-14T04:40:29;7.13;;;5.65;;
17052;SDS011;8643;48.824;11.422;2023-05-14T04:42:59;7.15;;;5.60;;
17052;SDS011;8643;48.824;11.422;2023-05-14T04:45:28;7.93;;;5.68;;
17052;SDS011;8643;48.824;11.422;2023-05-14T04:47:59;8.27;;;5.50;;
17052;SDS011;8643;48.824;11.422;2023-05-14T04:50:28;8.95;;;5.65;;
17052;SDS011;8643;48.824;11.422;2023-05-14T04:52:57;6.88;;;5.53;;
17052;SDS011;8643;48.824;11.422;2023-05-14T04:55:26;7.20;;;5.00;;
17052;SDS011;8643;48.824;11.422;2023-05-14T04:57:54;7.57;;;5.20;;
17052;SDS011;8643;48.824;11.422;2023-05-14T05:00:24;6.13;;;5.18;;
17052;SDS011;8643;48.824;11.422;2023-05-14T05:02:54;6.63;;;4.88;;
17052;SDS011;8643;48.824;11.422;2023-05-14T05:05:22;6.15;;;4.85;;
17052;SDS011;8643;48.824;11.422;2023-05-14T05:07:51;7.38;;;5.00;;
17052;SDS011;8643;48.824;11.422;2023-05-14T05:10:20;6.75;;;5.20;;
17052;SDS011;8643;48.824;11.422;2023-05-14T05:12:49;5.78;;;4.57;;
17052;SDS011;8643;48.824;11.422;2023-05-14T05:15:18;6.45;;;4.60;;
17052;SDS011;8643;48.824;11.422;2023-05-14T05:17:48;8.30;;;4.70;;
17052;SDS011;8643;48.824;11.422;2023-05-14T05:20:16;6.60;;;4.78;;
17052;SDS011;8643;48.824;11.422;2023-05-14T05:22:45;6.28;;;4.95;;
17052;SDS011;8643;48.824;11.422;2023-05-14T05:25:14;7.00;;;4.55;;
17052;SDS011;8643;48.824;11.422;2023-05-14T05:27:43;6.78;;;4.80;;
17052;SDS011;8643;48.824;11.422;2023-05-14T05:30:11;6.45;;;4.95;;
17052;SDS011;8643;48.824;11.422;2023-05-14T05:32:40;5.97;;;4.50;;
17052;SDS011;8643;48.824;11.422;2023-05-14T05:35:10;7.35;;;4.72;;
17052;SDS011;8643;48.824;11.422;2023-05-14T05:37:38;6.03;;;4.88;;
17052;SDS011;8643;48.824;11.422;2023-05-14T05:40:07;6.72;;;5.25;;
17052;SDS011;8643;48.824;11.422;2023-05-14T05:42:36;6.72;;;5.13;;
17052;SDS011;8643;48.824;11.422;2023-05-14T05:45:05;8.50;;;5.43;;
17052;SDS011;8643;48.824;11.422;2023-05-14T05:47:35;8.20;;;5.82;;
17052;SDS011;8643;48.824;11.422;2023-05-14T05:50:04;7.40;;;5.28;;
17052;SDS011;8643;48.824;11.422;2023-05-14T05:52:35;6.63;;;5.50;;
17052;SDS011;8643;48.824;11.422;2023-05-14T05:55:04;9.02;;;5.68;;
17052;SDS011;8643;48.824;11.422;2023-05-14T05:57:34;7.15;;;5.60;;
17052;SDS011;8643;48.824;11.422;2023-05-14T06:00:02;7.45;;;5.47;;
17052;SDS011;8643;48.824;11.422;2023-05-14T06:02:38;7.22;;;5.60;;
17052;SDS011;8643;48.824;11.422;2023-05-14T06:05:08;6.43;;;5.38;;
17052;SDS011;8643;48.824;11.422;2023-05-14T06:07:38;7.72;;;5.32;;
17052;SDS011;8643;48.824;11.422;2023-05-14T06:10:07;11.95;;;5.95;;
17052;SDS011;8643;48.824;11.422;2023-05-14T06:12:36;10.57;;;5.70;;
17052;SDS011;8643;48.824;11.422;2023-05-14T06:15:06;7.90;;;5.28;;
17052;SDS011;8643;48.824;11.422;2023-05-14T06:17:35;8.05;;;5.32;;
17052;SDS011;8643;48.824;11.422;2023-05-14T06:20:04;8.45;;;6.13;;
17052;SDS011;8643;48.824;11.422;2023-05-14T06:22:34;7.60;;;5.80;;
17052;SDS011;8643;48.824;11.422;2023-05-14T06:25:05;7.03;;;5.35;;
17052;SDS011;8643;48.824;11.422;2023-05-14T06:27:34;8.73;;;5.78;;
17052;SDS011;8643;48.824;11.422;2023-05-14T06:30:03;9.13;;;5.68;;
17052;SDS011;8643;48.824;11.422;2023-05-14T06:32:32;6.22;;;5.18;;
17052;SDS011;8643;48.824;11.422;2023-05-14T06:35:01;7.05;;;5.50;;
17052;SDS011;8643;48.824;11.422;2023-05-14T06:37:30;9.60;;;5.53;;
17052;SDS011;8643;48.824;11.422;2023-05-14T06:39:59;7.47;;;5.53;;
17052;SDS011;8643;48.824;11.422;2023-05-14T06:42:30;8.05;;;6.13;;
17052;SDS011;8643;48.824;11.422;2023-05-14T06:44:59;7.05;;;5.15;;
17052;SDS011;8643;48.824;11.422;2023-05-14T06:47:27;7.10;;;5.55;;
17052;SDS011;8643;48.824;11.422;2023-05-14T06:49:56;7.68;;;5.63;;
17052;SDS011;8643;48.824;11.422;2023-05-14T06:52:27;7.35;;;5.78;;
17052;SDS011;8643;48.824;11.422;2023-05-14T06:54:55;7.47;;;5.30;;
17052;SDS011;8643;48.824;11.422;2023-05-14T06:57:24;9.00;;;5.75;;
17052;SDS011;8643;48.824;11.422;2023-05-14T06:59:54;7.65;;;5.78;;
17052;SDS011;8643;48.824;11.422;2023-05-14T07:02:22;6.38;;;5.40;;
17052;SDS011;8643;48.824;11.422;2023-05-14T07:04:51;7.28;;;5.50;;
17052;SDS011;8643;48.824;11.422;2023-05-14T07:07:20;7.10;;;5.25;;
17052;SDS011;8643;48.824;11.422;2023-05-14T07:09:48;7.65;;;5.43;;
17052;SDS011;8643;48.824;11.422;2023-05-14T07:12:17;6.18;;;4.47;;
17052;SDS011;8643;48.824;11.422;2023-05-14T07:14:45;7.38;;;4.90;;
17052;SDS011;8643;48.824;11.422;2023-05-14T07:17:15;6.55;;;4.40;;
17052;SDS011;8643;48.824;11.422;2023-05-14T07:19:44;7.15;;;4.95;;
17052;SDS011;8643;48.824;11.422;2023-05-14T07:22:13;5.43;;;4.50;;
17052;SDS011;8643;48.824;11.422;2023-05-14T07:24:41;7.32;;;4.55;;
17052;SDS011;8643;48.824;11.422;2023-05-14T07:27:10;4.63;;;3.72;;
17052;SDS011;8643;48.824;11.422;2023-05-14T07:29:39;6.78;;;3.90;;
17052;SDS011;8643;48.824;11.422;2023-05-14T07:32:07;5.72;;;4.22;;
17052;SDS011;8643;48.824;11.422;2023-05-14T07:34:42;7.88;;;4.53;;
17052;SDS011;8643;48.824;11.422;2023-05-14T07:37:10;5.15;;;3.90;;
17052;SDS011;8643;48.824;11.422;2023-05-14T07:39:39;5.57;;;3.92;;
17052;SDS011;8643;48.824;11.422;2023-05-14T07:42:08;4.95;;;3.75;;
17052;SDS011;8643;48.824;11.422;2023-05-14T07:44:44;5.28;;;3.65;;
17052;SDS011;8643;48.824;11.422;2023-05-14T07:47:13;4.82;;;4.00;;
17052;SDS011;8643;48.824;11.422;2023-05-14T07:49:43;5.47;;;3.75;;
17052;SDS011;8643;48.824;11.422;2023-05-14T07:52:12;5.53;;;3.85;;
17052;SDS011;8643;48.824;11.422;2023-05-14T07:54:41;5.05;;;3.47;;
17052;SDS011;8643;48.824;11.422;2023-05-14T07:57:09;5.20;;;3.95;;
17052;SDS011;8643;48.824;11.422;2023-05-14T07:59:38;4.97;;;3.60;;
17052;SDS011;8643;48.824;11.422;2023-05-14T08:02:07;5.07;;;3.47;;
17052;SDS011;8643;48.824;11.422;2023-05-14T08:04:38;6.20;;;3.97;;
17052;SDS011;8643;48.824;11.422;2023-05-14T08:07:08;6.05;;;3.30;;
17052;SDS011;8643;48.824;11.422;2023-05-14T08:09:36;4.88;;;3.45;;
17052;SDS011;8643;48.824;11.422;2023-05-14T08:12:05;7.15;;;3.30;;
17052;SDS011;8643;48.824;11.422;2023-05-14T08:14:34;3.83;;;3.05;;
17052;SDS011;8643;48.824;11.422;2023-05-14T08:17:03;4.70;;;3.50;;
17052;SDS011;8643;48.824;11.422;2023-05-14T08:19:32;4.72;;;3.28;;
17052;SDS011;8643;48.824;11.422;2023-05-14T08:22:01;5.57;;;3.50;;
17052;SDS011;8643;48.824;11.422;2023-05-14T08:24:31;5.38;;;3.28;;
17052;SDS011;8643;48.824;11.422;2023-05-14T08:27:00;5.13;;;3.30;;
17052;SDS011;8643;48.824;11.422;2023-05-14T08:29:28;3.50;;;2.83;;
17052;SDS011;8643;48.824;11.422;2023-05-14T08:31:57;4.38;;;2.88;;
17052;SDS011;8643;48.824;11.422;2023-05-14T08:34:37;3.85;;;2.95;;
17052;SDS011;8643;48.824;11.422;2023-05-14T08:37:07;4.85;;;2.90;;
17052;SDS011;8643;48.824;11.422;2023-05-14T08:39:37;3.92;;;2.95;;
17052;SDS011;8643;48.824;11.422;2023-05-14T08:42:06;3.42;;;2.75;;
17052;SDS011;8643;48.824;11.422;2023-05-14T08:44:38;3.25;;;2.80;;
17052;SDS011;8643;48.824;11.422;2023-05-14T08:47:13;3.97;;;2.70;;
17052;SDS011;8643;48.824;11.422;2023-05-14T08:49:46;3.45;;;2.67;;
17052;SDS011;8643;48.824;11.422;2023-05-14T08:52:18;3.65;;;2.97;;
17052;SDS011;8643;48.824;11.422;2023-05-14T08:54:50;3.58;;;2.90;;
17052;SDS011;8643;48.824;11.422;2023-05-14T08:57:20;3.78;;;2.90;;
17052;SDS011;8643;48.824;11.422;2023-05-14T08:59:52;3.33;;;2.85;;
17052;SDS011;8643;48.824;11.422;2023-05-14T09:02:22;4.60;;;2.70;;
17052;SDS011;8643;48.824;11.422;2023-05-14T09:04:55;3.25;;;2.70;;
17052;SDS011;8643;48.824;11.422;2023-05-14T09:07:25;4.72;;;2.83;;
17052;SDS011;8643;48.824;11.422;2023-05-14T09:09:55;3.22;;;2.38;;
17052;SDS011;8643;48.824;11.422;2023-05-14T09:12:23;3.78;;;2.15;;
17052;SDS011;8643;48.824;11.422;2023-05-14T09:14:53;3.58;;;2.38;;
17052;SDS011;8643;48.824;11.422;2023-05-14T09:17:21;3.60;;;2.35;;
17052;SDS011;8643;48.824;11.422;2023-05-14T09:19:53;3.25;;;2.13;;
17052;SDS011;8643;48.824;11.422;2023-05-14T09:22:22;3.88;;;2.00;;
17052;SDS011;8643;48.824;11.422;2023-05-14T09:25:05;3.65;;;2.28;;
17052;SDS011;8643;48.824;11.422;2023-05-14T09:27:37;3.03;;;2.17;;
17052;SDS011;8643;48.824;11.422;2023-05-14T09:30:07;2.88;;;2.20;;
17052;SDS011;8643;48.824;11.422;2023-05-14T09:32:38;2.28;;;2.08;;
17052;SDS011;8643;48.824;11.422;2023-05-14T09:35:13;4.95;;;2.42;;
17052;SDS011;8643;48.824;11.422;2023-05-14T09:37:44;2.10;;;1.90;;
17052;SDS011;8643;48.824;11.422;2023-05-14T09:40:16;2.80;;;1.80;;
17052;SDS011;8643;48.824;11.422;2023-05-14T09:42:47;2.92;;;2.08;;
17052;SDS011;8643;48.824;11.422;2023-05-14T09:45:16;3.67;;;1.80;;
17052;SDS011;8643;48.824;11.422;2023-05-14T09:47:46;3.33;;;2.00;;
17052;SDS011;8643;48.824;11.422;2023-05-14T09:50:14;5.28;;;2.13;;
17052;SDS011;8643;48.824;11.422;2023-05-14T09:52:43;2.80;;;2.10;;
17052;SDS011;8643;48.824;11.422;2023-05-14T09:55:12;2.40;;;2.17;;
17052;SDS011;8643;48.824;11.422;2023-05-14T09:57:42;2.80;;;2.25;;
17052;SDS011;8643;48.824;11.422;2023-05-14T10:00:11;2.55;;;2.30;;
17052;SDS011;8643;48.824;11.422;2023-05-14T10:02:41;2.30;;;2.10;;
17052;SDS011;8643;48.824;11.422;2023-05-14T10:05:12;3.20;;;2.70;;
17052;SDS011;8643;48.824;11.422;2023-05-14T10:07:43;3.00;;;2.63;;
17052;SDS011;8643;48.824;11.422;2023-05-14T10:10:15;2.92;;;2.60;;
17052;SDS011;8643;48.824;11.422;2023-05-14T10:12:49;5.07;;;2.65;;
17052;SDS011;8643;48.824;11.422;2023-05-14T10:15:28;5.82;;;2.53;;
17052;SDS011;8643;48.824;11.422;2023-05-14T10:18:02;3.35;;;2.80;;
17052;SDS011;8643;48.824;11.422;2023-05-14T10:20:43;2.97;;;2.40;;
17052;SDS011;8643;48.824;11.422;2023-05-14T10:23:14;2.78;;;2.00;;
17052;SDS011;8643;48.824;11.422;2023-05-14T10:25:42;2.70;;;1.83;;
17052;SDS011;8643;48.824;11.422;2023-05-14T10:28:13;3.88;;;2.20;;
17052;SDS011;8643;48.824;11.422;2023-05-14T10:30:42;3.78;;;2.30;;
17052;SDS011;8643;48.824;11.422;2023-05-14T10:33:12;2.50;;;2.30;;
17052;SDS011;8643;48.824;11.422;2023-05-14T10:35:52;5.78;;;2.38;;
17052;SDS011;8643;48.824;11.422;2023-05-14T10:38:27;3.10;;;2.30;;
17052;SDS011;8643;48.824;11.422;2023-05-14T10:40:59;2.22;;;2.00;;
17052;SDS011;8643;48.824;11.422;2023-05-14T10:43:31;3.92;;;2.28;;
17052;SDS011;8643;48.824;11.422;2023-05-14T10:46:03;2.53;;;2.10;;
17052;SDS011;8643;48.824;11.422;2023-05-14T10:48:35;2.55;;;2.30;;
17052;SDS011;8643;48.824;11.422;2023-05-14T10:51:05;4.03;;;2.20;;
17052;SDS011;8643;48.824;11.422;2023-05-14T10:53:37;2.72;;;2.20;;
17052;SDS011;8643;48.824;11.422;2023-05-14T10:56:08;3.30;;;2.20;;
17052;SDS011;8643;48.824;11.422;2023-05-14T10:58:42;3.83;;;2.10;;
17052;SDS011;8643;48.824;11.422;2023-05-14T11:01:11;2.88;;;2.25;;
17052;SDS011;8643;48.824;11.422;2023-05-14T11:03:40;4.47;;;2.13;;
17052;SDS011;8643;48.824;11.422;2023-05-14T11:06:11;2.45;;;2.20;;
17052;SDS011;8643;48.824;11.422;2023-05-14T11:08:42;2.92;;;2.30;;
17052;SDS011;8643;48.824;11.422;2023-05-14T11:11:12;2.35;;;2.00;;
17052;SDS011;8643;48.824;11.422;2023-05-14T11:13:42;2.67;;;1.80;;
17052;SDS011;8643;48.824;11.422;2023-05-14T11:16:12;2.70;;;2.10;;
17052;SDS011;8643;48.824;11.422;2023-05-14T11:18:52;2.55;;;1.85;;
17052;SDS011;8643;48.824;11.422;2023-05-14T11:21:28;2.25;;;1.98;;
17052;SDS011;8643;48.824;11.422;2023-05-14T11:23:58;2.20;;;1.90;;
17052;SDS011;8643;48.824;11.422;2023-05-14T11:26:27;2.55;;;2.00;;
17052;SDS011;8643;48.824;11.422;2023-05-14T11:28:59;2.05;;;1.85;;
17052;SDS011;8643;48.824;11.422;2023-05-14T11:31:27;2.13;;;1.80;;
17052;SDS011;8643;48.824;11.422;2023-05-14T11:33:57;1.83;;;1.73;;
17052;SDS011;8643;48.824;11.422;2023-05-14T11:36:26;2.67;;;2.25;;
17052;SDS011;8643;48.824;11.422;2023-05-14T11:38:54;2.55;;;2.00;;
17052;SDS011;8643;48.824;11.422;2023-05-14T11:41:23;2.40;;;2.10;;
17052;SDS011;8643;48.824;11.422;2023-05-14T11:43:53;3.15;;;2.05;;
17052;SDS011;8643;48.824;11.422;2023-05-14T11:46:23;2.58;;;1.73;;
17052;SDS011;8643;48.824;11.422;2023-05-14T11:48:51;2.20;;;1.90;;
17052;SDS011;8643;48.824;11.422;2023-05-14T11:51:20;2.53;;;1.80;;
17052;SDS011;8643;48.824;11.422;2023-05-14T11:53:50;1.80;;;1.70;;
17052;SDS011;8643;48.824;11.422;2023-05-14T11:56:20;2.58;;;1.77;;
17052;SDS011;8643;48.824;11.422;2023-05-14T11:58:54;2.92;;;1.75;;
17052;SDS011;8643;48.824;11.422;2023-05-14T12:01:25;2.92;;;1.80;;
17052;SDS011;8643;48.824;11.422;2023-05-14T12:03:55;2.25;;;2.05;;
17052;SDS011;8643;48.824;11.422;2023-05-14T12:06:29;1.80;;;1.70;;
17052;SDS011;8643;48.824;11.422;2023-05-14T12:08:58;2.72;;;1.92;;
17052;SDS011;8643;48.824;11.422;2023-05-14T12:11:29;2.28;;;1.80;;
17052;SDS011;8643;48.824;11.422;2023-05-14T12:13:58;1.92;;;1.70;;
17052;SDS011;8643;48.824;11.422;2023-05-14T12:16:30;2.00;;;1.80;;
17052;SDS011;8643;48.824;11.422;2023-05-14T12:19:02;3.10;;;2.10;;
17052;SDS011;8643;48.824;11.422;2023-05-14T12:21:31;3.25;;;2.05;;
17052;SDS011;8643;48.824;11.422;2023-05-14T12:24:01;2.70;;;2.40;;
17052;SDS011;8643;48.824;11.422;2023-05-14T12:26:31;3.88;;;2.60;;
17052;SDS011;8643;48.824;11.422;2023-05-14T12:29:00;2.85;;;2.50;;
17052;SDS011;8643;48.824;11.422;2023-05-14T12:31:31;2.53;;;2.33;;
17052;SDS011;8643;48.824;11.422;2023-05-14T12:34:02;2.85;;;2.30;;
17052;SDS011;8643;48.824;11.422;2023-05-14T12:36:31;2.30;;;2.10;;
17052;SDS011;8643;48.824;11.422;2023-05-14T12:39:00;2.50;;;2.30;;
17052;SDS011;8643;48.824;11.422;2023-05-14T12:41:31;3.00;;;2.30;;
17052;SDS011;8643;48.824;11.422;2023-05-14T12:44:00;3.00;;;2.40;;
17052;SDS011;8643;48.824;11.422;2023-05-14T12:46:29;2.78;;;2.30;;
17052;SDS011;8643;48.824;11.422;2023-05-14T12:49:00;2.92;;;2.30;;
17052;SDS011;8643;48.824;11.422;2023-05-14T12:51:29;2.42;;;2.22;;
17052;SDS011;8643;48.824;11.422;2023-05-14T12:53:57;2.47;;;2.28;;
17052;SDS011;8643;48.824;11.422;2023-05-14T12:56:26;4.85;;;2.15;;
17052;SDS011;8643;48.824;11.422;2023-05-14T12:58:56;3.25;;;2.40;;
17052;SDS011;8643;48.824;11.422;2023-05-14T13:01:25;2.97;;;2.67;;
17052;SDS011;8643;48.824;11.422;2023-05-14T13:03:55;5.07;;;2.63;;
17052;SDS011;8643;48.824;11.422;2023-05-14T13:06:24;2.80;;;2.30;;
17052;SDS011;8643;48.824;11.422;2023-05-14T13:08:52;5.50;;;3.22;;
17052;SDS011;8643;48.824;11.422;2023-05-14T13:11:22;8.55;;;5.47;;
17052;SDS011;8643;48.824;11.422;2023-05-14T13:13:50;3.92;;;2.10;;
17052;SDS011;8643;48.824;11.422;2023-05-14T13:16:19;4.50;;;1.80;;
17052;SDS011;8643;48.824;11.422;2023-05-14T13:18:48;3.78;;;1.90;;
17052;SDS011;8643;48.824;11.422;2023-05-14T13:21:18;3.83;;;2.03;;
17052;SDS011;8643;48.824;11.422;2023-05-14T13:23:47;3.08;;;2.15;;
17052;SDS011;8643;48.824;11.422;2023-05-14T13:26:16;3.88;;;2.10;;
17052;SDS011;8643;48.824;11.422;2023-05-14T13:28:44;3.03;;;2.25;;
17052;SDS011;8643;48.824;11.422;2023-05-14T13:31:13;3.33;;;2.10;;
17052;SDS011;8643;48.824;11.422;2023-05-14T13:33:42;4.15;;;2.47;;
17052;SDS011;8643;48.824;11.422;2023-05-14T13:36:12;19.58;;;9.48;;
17052;SDS011;8643;48.824;11.422;2023-05-14T13:38:43;6.40;;;4.55;;
17052;SDS011;8643;48.824;11.422;2023-05-14T13:41:12;7.35;;;3.10;;
17052;SDS011;8643;48.824;11.422;2023-05-14T13:43:40;4.28;;;3.30;;
17052;SDS011;8643;48.824;11.422;2023-05-14T13:46:09;3.25;;;2.20;;
17052;SDS011;8643;48.824;11.422;2023-05-14T13:48:38;4.28;;;2.13;;
17052;SDS011;8643;48.824;11.422;2023-05-14T13:51:07;5.15;;;2.22;;
17052;SDS011;8643;48.824;11.422;2023-05-14T13:53:36;2.92;;;1.98;;
17052;SDS011;8643;48.824;11.422;2023-05-14T13:56:06;3.17;;;2.20;;
17052;SDS011;8643;48.824;11.422;2023-05-14T13:58:34;8.75;;;2.45;;
17052;SDS011;8643;48.824;11.422;2023-05-14T14:01:03;2.85;;;2.20;;
17052;SDS011;8643;48.824;11.422;2023-05-14T14:03:33;3.03;;;2.22;;
17052;SDS011;8643;48.824;11.422;2023-05-14T14:06:01;5.55;;;2.05;;
17052;SDS011;8643;48.824;11.422;2023-05-14T14:08:30;4.53;;;2.30;;
17052;SDS011;8643;48.824;11.422;2023-05-14T14:10:59;2.92;;;2.25;;
17052;SDS011;8643;48.824;11.422;2023-05-14T14:13:29;2.92;;;2.33;;
17052;SDS011;8643;48.824;11.422;2023-05-14T14:15:57;2.70;;;2.22;;
17052;SDS011;8643;48.824;11.422;2023-05-14T14:18:28;2.80;;;2.28;;
17052;SDS011;8643;48.824;11.422;2023-05-14T14:20:57;2.65;;;2.20;;
17052;SDS011;8643;48.824;11.422;2023-05-14T14:23:25;3.63;;;2.13;;
17052;SDS011;8643;48.824;11.422;2023-05-14T14:25:54;3.60;;;2.03;;
17052;SDS011;8643;48.824;11.422;2023-05-14T14:28:23;2.30;;;1.95;;
17052;SDS011;8643;48.824;11.422;2023-05-14T14:30:53;2.25;;;1.90;;
17052;SDS011;8643;48.824;11.422;2023-05-14T14:33:22;3.33;;;2.67;;
17052;SDS011;8643;48.824;11.422;2023-05-14T14:35:50;3.30;;;2.50;;
17052;SDS011;8643;48.824;11.422;2023-05-14T14:38:19;5.28;;;2.10;;
17052;SDS011;8643;48.824;11.422;2023-05-14T14:40:48;3.17;;;2.42;;
17052;SDS011;8643;48.824;11.422;2023-05-14T14:43:16;3.53;;;1.90;;
17052;SDS011;8643;48.824;11.422;2023-05-14T14:45:45;2.00;;;1.80;;
17052;SDS011;8643;48.824;11.422;2023-05-14T14:48:22;2.55;;;2.20;;
17052;SDS011;8643;48.824;11.422;2023-05-14T14:50:52;3.28;;;2.17;;
17052;SDS011;8643;48.824;11.422;2023-05-14T14:53:22;2.20;;;2.00;;
17052;SDS011;8643;48.824;11.422;2023-05-14T14:55:51;2.85;;;2.35;;
17052;SDS011;8643;48.824;11.422;2023-05-14T14:58:20;2.40;;;2.20;;
17052;SDS011;8643;48.824;11.422;2023-05-14T15:00:50;4.00;;;2.70;;